Bartom's Hill, United Kingdom
Current Conditions -  °F | °C
As of 8:50 AM on Friday 24 Oct 2014 (Local Time) from EGHH Reporting Station
Few Clouds Few Clouds  
Wind Chill: 15°   Ceiling: Unl
Heat Index: 15°   Visibility: 6mi
Dew Point: 14°   Wind: 5mph
Humidity: 94%   Direction: 210°SSW
Pressure: 29.97"   Gusts: NA
Location:  50.73°N, 2.02°W
Report Text: EGHH 240750Z 21004KT 9999 FEW014 15/14 Q1015
Loading
Personal Weather Stations






























Interactive Weather Map
Tropical Storm Tracking
New forecast layout! Learn more

10-Day Weather Forecast

Advertisements
Track Severe Weather on mobile